Terminal Aerodrome Forecast
Issued by NWS Duluth, MN

Home | Current Version | Previous Version | Text Only | Print | Product List | Glossary On
Versions: 1 2 3 4 5 6 7 8 9 10 11 12 13 14 15 16 17
000
FTUS43 KDLH 241730
TAFINL
TAF
KINL 241730Z 2418/2518 18009KT P6SM FEW250
     FM250300 VRB03KT 5SM -SN OVC030
     FM250500 07004KT 1/4SM +SN OVC030
     FM250800 02004KT 1SM -SN OVC030
     FM251200 31005KT 3SM -SN OVC015
     FM251500 28007KT P6SM -SN BKN015=

USA.gov is the U.S. government's official web portal to all federal, state and local government web resources and services.